Lanton, Missouri
Current Conditions -  °F | °C
As of 11:53 AM on Thursday 23 Oct 2014 (Local Time) from KUNO Reporting Station
Clear Clear  
Wind Chill: 54°   Ceiling: Unl
Heat Index: 54°   Visibility: 10mi
Dew Point: 43°   Wind: 5mph
Humidity: 66%   Direction: 160°SSE
Pressure: 30.22"   Gusts: NA
Location:  36.7256°N, 91.9123°W
Report Text: KUNO 231653Z AUTO 16004KT 10SM CLR 12/06 A3022 RMK AO2 SLP232 T01220061
Loading
Personal Weather Stations






























Interactive Weather Map
Tropical Storm Tracking
New forecast layout! Learn more

10-Day Weather Forecast

Advertisements
Track Severe Weather on mobile